createdAt,value
2023-01-15T00:01:51.912Z,99214.91
2023-01-15T00:04:19.155Z,99226.56
2023-01-15T00:06:46.268Z,99235.00
2023-01-15T00:09:16.515Z,99220.06
2023-01-15T00:11:44.005Z,99215.97
2023-01-15T00:14:12.580Z,99209.75
2023-01-15T00:16:40.908Z,99204.91
2023-01-15T00:19:11.257Z,99206.22
2023-01-15T00:21:38.863Z,99204.31
2023-01-15T00:24:24.541Z,99208.75
2023-01-15T00:27:10.014Z,99205.13
2023-01-15T00:29:36.896Z,99210.88
2023-01-15T00:32:06.264Z,99225.47
2023-01-15T00:34:33.832Z,99230.91
2023-01-15T00:37:01.677Z,99235.50
2023-01-15T00:39:28.924Z,99234.38
2023-01-15T00:41:56.747Z,99235.69
2023-01-15T00:44:23.912Z,99229.16
2023-01-15T00:46:50.769Z,99232.06
2023-01-15T00:49:18.013Z,99234.56
2023-01-15T00:51:46.175Z,99230.75
2023-01-15T00:54:13.239Z,99233.41
2023-01-15T00:56:40.166Z,99237.75
2023-01-15T00:59:07.363Z,99241.03
2023-01-15T01:01:34.588Z,99243.69
2023-01-15T01:04:01.998Z,99248.31
2023-01-15T01:06:29.352Z,99257.44
2023-01-15T01:08:57.109Z,99246.84
2023-01-15T01:11:27.111Z,99254.72
2023-01-15T01:13:56.979Z,99266.41
2023-01-15T01:16:35.981Z,99271.91
2023-01-15T01:19:09.661Z,99269.19
2023-01-15T01:21:39.185Z,99264.84
2023-01-15T01:24:08.241Z,99278.38
2023-01-15T01:26:35.382Z,99261.78
2023-01-15T01:29:02.237Z,99278.94
2023-01-15T01:31:29.317Z,99283.47
2023-01-15T01:33:58.066Z,99273.69
2023-01-15T01:36:33.692Z,99276.41
2023-01-15T01:39:01.308Z,99260.47
2023-01-15T01:41:29.234Z,99281.06
2023-01-15T01:44:11.853Z,99270.00
2023-01-15T01:46:38.757Z,99282.13
2023-01-15T01:49:11.797Z,99285.44
2023-01-15T01:51:51.216Z,99274.84
2023-01-15T01:54:21.744Z,99279.28
2023-01-15T01:56:51.745Z,99282.00
2023-01-15T01:59:20.850Z,99276.81
2023-01-15T02:01:49.639Z,99269.91
2023-01-15T02:04:20.480Z,99266.88
2023-01-15T02:06:47.292Z,99260.47
2023-01-15T02:09:14.320Z,99263.19
2023-01-15T02:11:41.221Z,99263.84
2023-01-15T02:14:19.990Z,99255.38
2023-01-15T02:16:56.191Z,99254.84
2023-01-15T02:19:46.373Z,99251.63
2023-01-15T02:22:25.416Z,99259.50
2023-01-15T02:25:01.062Z,99256.31
2023-01-15T02:27:28.892Z,99276.25
2023-01-15T02:30:25.725Z,99269.69
2023-01-15T02:33:01.229Z,99278.69
2023-01-15T02:35:44.866Z,99267.06
2023-01-15T02:38:17.298Z,99279.03
2023-01-15T02:40:44.272Z,99268.13
2023-01-15T02:43:14.592Z,99266.56
2023-01-15T02:45:44.278Z,99270.91
2023-01-15T02:48:16.674Z,99256.72
2023-01-15T02:50:49.142Z,99262.13
2023-01-15T02:53:24.076Z,99263.44
2023-01-15T02:55:54.424Z,99268.38
2023-01-15T02:58:26.908Z,99266.41
2023-01-15T03:00:56.919Z,99251.81
2023-01-15T03:03:58.671Z,99261.56
2023-01-15T03:06:43.386Z,99260.47
2023-01-15T03:09:10.445Z,99256.59
2023-01-15T03:11:44.664Z,99251.81
2023-01-15T03:14:18.713Z,99254.25
2023-01-15T03:16:56.354Z,99247.91
2023-01-15T03:19:29.481Z,99240.88
2023-01-15T03:22:14.481Z,99232.75
2023-01-15T03:24:56.159Z,99241.59
2023-01-15T03:27:23.693Z,99237.81
2023-01-15T03:29:59.694Z,99237.03
2023-01-15T03:32:26.626Z,99230.50
2023-01-15T03:34:56.124Z,99232.66
2023-01-15T03:37:28.289Z,99225.09
2023-01-15T03:39:57.290Z,99213.47
2023-01-15T03:42:43.092Z,99224.28
2023-01-15T03:45:23.933Z,99224.53
2023-01-15T03:48:05.753Z,99220.78
2023-01-15T03:50:46.920Z,99228.06
2023-01-15T03:53:22.025Z,99213.72
2023-01-15T03:56:14.909Z,99214.03
2023-01-15T03:59:02.746Z,99209.34
2023-01-15T04:01:38.773Z,99209.44
2023-01-15T04:04:06.571Z,99223.22
2023-01-15T04:06:37.212Z,99213.53
2023-01-15T04:09:10.979Z,99207.78
2023-01-15T04:11:38.196Z,99203.22
2023-01-15T04:14:05.891Z,99212.66
2023-01-15T04:16:35.029Z,99194.75
2023-01-15T04:19:02.052Z,99197.13
2023-01-15T04:21:29.240Z,99203.13
2023-01-15T04:23:55.996Z,99189.81
2023-01-15T04:26:23.123Z,99191.41
2023-01-15T04:28:50.250Z,99190.91
2023-01-15T04:31:17.563Z,99182.72
2023-01-15T04:33:44.684Z,99187.97
2023-01-15T04:36:11.746Z,99187.38
2023-01-15T04:38:38.742Z,99178.63
2023-01-15T04:41:25.253Z,99171.75
2023-01-15T04:44:07.079Z,99182.72
2023-01-15T04:47:00.351Z,99184.03
2023-01-15T04:49:27.947Z,99188.69
2023-01-15T04:51:55.072Z,99188.69
2023-01-15T04:54:23.013Z,99184.03
2023-01-15T04:56:53.131Z,99175.09
2023-01-15T04:59:22.969Z,99182.41
2023-01-15T05:02:02.680Z,99181.34
2023-01-15T05:04:31.965Z,99183.19
2023-01-15T05:06:58.998Z,99194.22
2023-01-15T05:09:25.840Z,99189.38
2023-01-15T05:11:52.649Z,99185.50
2023-01-15T05:14:19.568Z,99202.91
2023-01-15T05:16:46.372Z,99187.16
2023-01-15T05:19:13.293Z,99185.34
2023-01-15T05:21:42.387Z,99185.84
2023-01-15T05:24:15.385Z,99190.19
2023-01-15T05:26:42.671Z,99165.19
2023-01-15T05:29:11.670Z,99163.69
2023-01-15T05:31:39.469Z,99170.19
2023-01-15T05:34:06.465Z,99171.25
2023-01-15T05:36:33.590Z,99174.53
2023-01-15T05:39:02.475Z,99169.59
2023-01-15T05:41:49.285Z,99170.44
2023-01-15T05:44:27.714Z,99182.06
2023-01-15T05:46:57.670Z,99173.88
2023-01-15T05:49:27.786Z,99179.03
2023-01-15T05:51:55.022Z,99179.94
2023-01-15T05:54:24.436Z,99171.81
2023-01-15T05:56:51.960Z,99168.59
2023-01-15T05:59:23.244Z,99172.88
2023-01-15T06:01:50.513Z,99169.94
2023-01-15T06:04:21.206Z,99176.66
2023-01-15T06:06:52.274Z,99182.16
2023-01-15T06:09:23.372Z,99184.84
2023-01-15T06:11:51.202Z,99188.88
2023-01-15T06:14:18.243Z,99185.44
2023-01-15T06:16:45.527Z,99182.78
2023-01-15T06:19:13.725Z,99188.44
2023-01-15T06:21:40.723Z,99180.63
2023-01-15T06:24:08.823Z,99194.19
2023-01-15T06:26:35.726Z,99187.38
2023-01-15T06:29:02.639Z,99191.72
2023-01-15T06:31:29.617Z,99177.13
2023-01-15T06:33:56.778Z,99190.16
2023-01-15T06:36:26.064Z,99193.94
2023-01-15T06:38:53.269Z,99174.50
2023-01-15T06:41:42.446Z,99176.34
2023-01-15T06:44:33.312Z,99185.56
2023-01-15T06:47:24.133Z,99179.66
2023-01-15T06:49:56.574Z,99176.94
2023-01-15T06:52:28.857Z,99178.59
2023-01-15T06:54:55.813Z,99176.34
2023-01-15T06:57:22.917Z,99188.34
2023-01-15T06:59:50.920Z,99177.94
2023-01-15T07:02:18.625Z,99171.78
2023-01-15T07:04:46.489Z,99171.47
2023-01-15T07:07:13.581Z,99168.50
2023-01-15T07:09:40.539Z,99168.22
2023-01-15T07:12:07.454Z,99167.69
2023-01-15T07:14:34.296Z,99162.81
2023-01-15T07:17:01.342Z,99172.53
2023-01-15T07:19:28.565Z,99174.75
2023-01-15T07:21:55.635Z,99157.91
2023-01-15T07:24:25.350Z,99171.72
2023-01-15T07:26:52.190Z,99172.53
2023-01-15T07:29:19.319Z,99170.31
2023-01-15T07:31:46.337Z,99175.75
2023-01-15T07:34:13.423Z,99183.34
2023-01-15T07:36:40.755Z,99183.84
2023-01-15T07:39:10.020Z,99183.84
2023-01-15T07:41:55.816Z,99163.78
2023-01-15T07:44:41.877Z,99179.75
2023-01-15T07:47:41.190Z,99179.44
2023-01-15T07:50:13.247Z,99187.47
2023-01-15T07:52:39.984Z,99183.63
2023-01-15T07:55:08.718Z,99180.94
2023-01-15T07:57:36.581Z,99183.91
2023-01-15T08:00:05.388Z,99175.53
2023-01-15T08:02:32.098Z,99183.56
2023-01-15T08:04:59.155Z,99190.13
2023-01-15T08:07:26.516Z,99197.09
2023-01-15T08:09:53.359Z,99183.56
2023-01-15T08:12:38.680Z,99176.00
2023-01-15T08:15:15.430Z,99170.03
2023-01-15T08:17:49.930Z,99173.22
2023-01-15T08:20:25.857Z,99176.44
2023-01-15T08:22:53.420Z,99172.59
2023-01-15T08:25:23.234Z,99174.47
2023-01-15T08:27:50.365Z,99179.66
2023-01-15T08:30:20.428Z,99174.72
2023-01-15T08:32:48.131Z,99178.41
2023-01-15T08:35:15.213Z,99178.72
2023-01-15T08:37:42.522Z,99169.81
2023-01-15T08:40:11.703Z,99168.16
2023-01-15T08:42:39.387Z,99158.66
2023-01-15T08:45:06.981Z,99178.66
2023-01-15T08:47:33.936Z,99166.03
2023-01-15T08:50:00.719Z,99153.50
2023-01-15T08:52:27.739Z,99147.84
2023-01-15T08:54:54.660Z,99159.47
2023-01-15T08:57:21.486Z,99156.28
2023-01-15T08:59:48.876Z,99152.44
2023-01-15T09:02:17.914Z,99147.56
2023-01-15T09:04:44.695Z,99141.63
2023-01-15T09:07:13.219Z,99138.97
2023-01-15T09:09:40.239Z,99148.50
2023-01-15T09:12:09.966Z,99155.50
2023-01-15T09:14:57.686Z,99156.34
2023-01-15T09:17:25.315Z,99150.69
2023-01-15T09:19:52.201Z,99153.28
2023-01-15T09:22:19.060Z,99153.53
2023-01-15T09:24:46.661Z,99163.56
2023-01-15T09:27:13.915Z,99169.13
2023-01-15T09:29:40.671Z,99167.16
2023-01-15T09:32:10.177Z,99150.41
2023-01-15T09:34:37.312Z,99161.56
2023-01-15T09:37:04.249Z,99177.78
2023-01-15T09:39:31.405Z,99173.50
2023-01-15T09:42:27.707Z,99177.94
2023-01-15T09:45:09.681Z,99190.91
2023-01-15T09:47:51.705Z,99179.06
2023-01-15T09:50:29.327Z,99187.78
2023-01-15T09:53:11.129Z,99174.22
2023-01-15T09:55:50.575Z,99166.91
2023-01-15T09:58:20.768Z,99161.75
2023-01-15T10:00:50.600Z,99161.50
2023-01-15T10:03:40.543Z,99167.75
2023-01-15T10:06:15.657Z,99178.00
2023-01-15T10:08:47.102Z,99180.72
2023-01-15T10:11:17.880Z,99179.91
2023-01-15T10:25:05.977Z,99172.13
2023-01-15T10:27:33.737Z,99187.31
2023-01-15T10:30:15.474Z,99188.63
2023-01-15T10:33:01.405Z,99171.81
2023-01-15T10:36:47.314Z,99165.31
2023-01-15T10:39:28.976Z,99161.72
2023-01-15T10:42:30.831Z,99140.25
2023-01-15T10:45:27.098Z,99150.59
2023-01-15T10:48:12.192Z,99144.94
2023-01-15T10:50:39.201Z,99146.38
2023-01-15T10:53:22.599Z,99146.38
2023-01-15T10:55:56.030Z,99145.31
2023-01-15T10:58:45.990Z,99136.66
2023-01-15T11:01:20.012Z,99131.19
2023-01-15T11:03:47.472Z,99136.09
2023-01-15T11:06:17.555Z,99137.13
2023-01-15T11:12:06.060Z,99134.47
2023-01-15T11:15:01.373Z,99129.56
2023-01-15T11:18:05.276Z,99110.09
2023-01-15T11:20:36.252Z,99119.63
2023-01-15T11:23:18.515Z,99098.13
2023-01-15T11:26:04.408Z,99113.03
2023-01-15T11:28:40.632Z,99111.66
2023-01-15T11:31:08.913Z,99120.03
2023-01-15T11:33:36.175Z,99107.34
2023-01-15T11:36:22.090Z,99133.69
2023-01-15T11:38:50.674Z,99110.16
2023-01-15T11:41:46.419Z,99127.16
2023-01-15T11:44:33.643Z,99125.72
2023-01-15T11:47:20.343Z,99121.38
2023-01-15T11:50:10.513Z,99135.09
2023-01-15T11:52:43.646Z,99118.44
2023-01-15T11:55:14.806Z,99112.16
2023-01-15T11:57:42.202Z,99129.72
2023-01-15T12:00:25.671Z,99113.81
2023-01-15T12:02:56.440Z,99103.44
2023-01-15T12:05:26.756Z,99098.47
2023-01-15T12:07:58.184Z,99110.28
2023-01-15T12:11:21.161Z,99098.47
2023-01-15T12:14:01.460Z,99082.09
2023-01-15T12:16:45.858Z,99093.41
2023-01-15T12:19:46.519Z,99100.00
2023-01-15T12:22:28.643Z,99096.31
2023-01-15T12:24:55.540Z,99088.38
2023-01-15T12:27:34.359Z,99084.78
2023-01-15T12:30:04.356Z,99085.09
2023-01-15T12:32:42.545Z,99090.84
2023-01-15T12:35:32.382Z,99087.56
2023-01-15T12:38:18.456Z,99071.69
2023-01-15T12:40:54.346Z,99102.22
2023-01-15T12:43:45.241Z,99095.19
2023-01-15T12:46:24.546Z,99084.94
2023-01-15T12:49:08.267Z,99060.44
2023-01-15T12:52:16.688Z,99051.50
2023-01-15T12:54:58.406Z,99070.19
2023-01-15T12:57:35.847Z,99050.94
2023-01-15T13:00:24.538Z,99063.69
2023-01-15T13:03:06.231Z,99057.16
2023-01-15T13:05:36.522Z,99040.13
2023-01-15T13:08:20.646Z,99032.56
2023-01-15T13:10:50.186Z,99044.75
2023-01-15T13:13:24.906Z,99031.75
2023-01-15T13:15:58.255Z,99038.28
2023-01-15T13:18:50.047Z,99020.88
2023-01-15T13:21:18.656Z,99023.97
2023-01-15T13:24:19.269Z,99015.06
2023-01-15T13:27:11.527Z,99038.63
2023-01-15T13:29:54.670Z,99025.88
2023-01-15T13:32:27.191Z,99037.63
2023-01-15T13:35:05.711Z,99022.19
2023-01-15T13:37:43.750Z,99032.00
2023-01-15T13:40:35.198Z,99019.88
2023-01-15T13:43:05.198Z,99010.47
2023-01-15T13:45:51.066Z,99020.84
2023-01-15T13:48:32.394Z,99004.34
2023-01-15T13:51:01.732Z,99005.19
2023-01-15T13:53:29.068Z,99013.03
2023-01-15T13:56:01.668Z,99009.34
2023-01-15T13:58:31.419Z,99019.09
2023-01-15T14:01:18.091Z,99011.78
2023-01-15T14:04:21.692Z,99006.09
2023-01-15T14:06:50.843Z,98989.84
2023-01-15T14:09:17.603Z,99000.44
2023-01-15T14:12:13.552Z,98998.31
2023-01-15T14:15:21.377Z,99006.94
2023-01-15T14:18:04.157Z,99002.66
2023-01-15T14:20:39.015Z,98989.38
2023-01-15T14:23:16.845Z,99007.03
2023-01-15T14:26:35.008Z,99003.78
2023-01-15T14:29:04.952Z,99005.13
2023-01-15T14:31:52.652Z,99023.00
2023-01-15T14:34:28.648Z,99004.59
2023-01-15T14:37:00.266Z,99042.28
2023-01-15T14:39:32.458Z,99022.69
2023-01-15T14:42:26.822Z,99049.78
2023-01-15T14:45:00.221Z,99063.75
2023-01-15T14:47:35.504Z,99061.44
2023-01-15T14:50:20.817Z,99084.56
2023-01-15T14:52:49.444Z,99087.50
2023-01-15T14:55:17.747Z,99098.09
2023-01-15T14:58:02.004Z,99067.53
2023-01-15T15:00:36.425Z,99115.72
2023-01-15T15:03:18.291Z,99126.84
2023-01-15T15:05:47.142Z,99124.19
2023-01-15T15:08:16.555Z,99109.28
2023-01-15T15:10:45.774Z,99118.63
2023-01-15T15:13:36.081Z,99127.63
2023-01-15T15:16:19.960Z,99133.88
2023-01-15T15:19:14.412Z,99120.75
2023-01-15T15:21:45.514Z,99122.19
2023-01-15T15:24:24.742Z,99142.06
2023-01-15T15:26:54.727Z,99150.88
2023-01-15T15:29:22.459Z,99140.56
2023-01-15T15:31:49.808Z,99142.94
2023-01-15T15:34:29.462Z,99135.78
2023-01-15T15:37:01.464Z,99142.59
2023-01-15T15:39:53.852Z,99141.63
2023-01-15T15:42:44.813Z,99162.06
2023-01-15T15:45:41.643Z,99142.38
2023-01-15T15:48:42.095Z,99166.31
2023-01-15T15:51:32.568Z,99160.56
2023-01-15T15:54:15.586Z,99181.34
2023-01-15T15:57:01.119Z,99177.00
2023-01-15T15:59:34.652Z,99173.47
2023-01-15T16:02:19.373Z,99171.47
2023-01-15T16:04:51.640Z,99169.38
2023-01-15T16:07:27.362Z,99169.94
2023-01-15T16:09:58.572Z,99169.38
2023-01-15T16:12:29.551Z,99172.06
2023-01-15T16:14:58.028Z,99186.25
2023-01-15T16:17:29.092Z,99193.78
2023-01-15T16:19:57.720Z,99196.47
2023-01-15T16:22:24.815Z,99205.25
2023-01-15T16:24:58.747Z,99183.31
2023-01-15T16:27:32.928Z,99173.81
2023-01-15T16:30:00.278Z,99197.41
2023-01-15T16:32:31.497Z,99207.72
2023-01-15T16:35:09.753Z,99215.09
2023-01-15T16:37:37.524Z,99236.22
2023-01-15T16:40:06.170Z,99234.13
2023-01-15T16:42:37.823Z,99243.25
2023-01-15T16:45:18.774Z,99246.06
2023-01-15T16:48:09.231Z,99250.66
2023-01-15T16:50:38.027Z,99261.22
2023-01-15T16:53:07.262Z,99259.69
2023-01-15T16:55:34.197Z,99242.69
2023-01-15T16:58:13.197Z,99262.38
2023-01-15T17:00:53.336Z,99258.75
2023-01-15T17:03:22.440Z,99260.03
2023-01-15T17:06:10.816Z,99262.16
2023-01-15T17:08:39.012Z,99272.84
2023-01-15T17:11:13.982Z,99269.78
2023-01-15T17:13:41.521Z,99269.53
2023-01-15T17:16:14.354Z,99272.38
2023-01-15T17:18:41.255Z,99278.94
2023-01-15T17:21:16.161Z,99268.22
2023-01-15T17:23:43.176Z,99265.53
2023-01-15T17:26:17.881Z,99269.28
2023-01-15T17:28:44.900Z,99285.16
2023-01-15T17:31:29.678Z,99283.88
2023-01-15T17:34:01.468Z,99283.97
2023-01-15T17:36:30.593Z,99303.09
2023-01-15T17:38:57.558Z,99302.28
2023-01-15T17:41:24.787Z,99313.09
2023-01-15T17:43:52.144Z,99311.44
2023-01-15T17:46:19.163Z,99311.44
2023-01-15T17:48:46.152Z,99314.25
2023-01-15T17:51:15.634Z,99303.94
2023-01-15T17:53:42.915Z,99309.44
2023-01-15T17:56:28.129Z,99318.13
2023-01-15T17:59:14.064Z,99303.22
2023-01-15T18:02:04.233Z,99328.59
2023-01-15T18:04:51.968Z,99334.34
2023-01-15T18:07:21.717Z,99334.94
2023-01-15T18:09:50.393Z,99350.66
2023-01-15T18:12:17.366Z,99342.78
2023-01-15T18:14:44.270Z,99339.63
2023-01-15T18:17:11.734Z,99344.78
2023-01-15T18:19:39.016Z,99344.78
2023-01-15T18:22:08.491Z,99350.75
2023-01-15T18:24:35.455Z,99361.56
2023-01-15T18:27:04.647Z,99345.97
2023-01-15T18:29:31.662Z,99346.56
2023-01-15T18:31:58.500Z,99349.47
2023-01-15T18:34:25.528Z,99356.88
2023-01-15T18:36:52.431Z,99363.34
2023-01-15T18:39:19.402Z,99364.97
2023-01-15T18:41:46.228Z,99360.28
2023-01-15T18:44:34.964Z,99364.38
2023-01-15T18:47:05.281Z,99371.44
2023-01-15T18:49:32.485Z,99364.50
2023-01-15T18:52:17.761Z,99381.78
2023-01-15T18:54:44.605Z,99354.06
2023-01-15T18:57:11.731Z,99380.16
2023-01-15T18:59:38.600Z,99380.03
2023-01-15T19:02:05.882Z,99382.38
2023-01-15T19:04:32.951Z,99375.06
2023-01-15T19:07:03.958Z,99378.38
2023-01-15T19:09:31.665Z,99391.06
2023-01-15T19:11:59.237Z,99394.59
2023-01-15T19:14:44.711Z,99410.69
2023-01-15T19:17:42.400Z,99408.09
2023-01-15T19:20:11.928Z,99413.97
2023-01-15T19:22:57.228Z,99411.28
2023-01-15T19:25:25.890Z,99419.84
2023-01-15T19:27:53.650Z,99415.16
2023-01-15T19:30:20.535Z,99417.00
2023-01-15T19:32:47.382Z,99427.38
2023-01-15T19:35:14.737Z,99425.47
2023-01-15T19:37:42.000Z,99427.38
2023-01-15T19:40:18.336Z,99432.28
2023-01-15T19:43:03.442Z,99427.81
2023-01-15T19:45:49.256Z,99438.63
2023-01-15T19:48:35.889Z,99435.13
2023-01-15T19:51:02.916Z,99448.25
2023-01-15T19:53:29.717Z,99448.38
2023-01-15T19:55:56.751Z,99454.69
2023-01-15T19:58:26.409Z,99459.28
2023-01-15T20:00:53.375Z,99466.44
2023-01-15T20:03:20.462Z,99467.97
2023-01-15T20:05:47.432Z,99473.38
2023-01-15T20:08:19.319Z,99472.31
2023-01-15T20:10:48.851Z,99484.78
2023-01-15T20:13:40.510Z,99490.31
2023-01-15T20:16:11.039Z,99486.19
2023-01-15T20:18:38.481Z,99497.47
2023-01-15T20:21:05.427Z,99488.53
2023-01-15T20:23:32.688Z,99508.84
2023-01-15T20:26:10.571Z,99504.06
2023-01-15T20:28:47.349Z,99513.81
2023-01-15T20:31:17.147Z,99498.78
2023-01-15T20:33:44.230Z,99507.47
2023-01-15T20:36:11.264Z,99501.47
2023-01-15T20:38:38.726Z,99507.25
2023-01-15T20:41:29.529Z,99504.56
2023-01-15T20:44:15.097Z,99504.88
2023-01-15T20:46:41.977Z,99507.00
2023-01-15T20:49:27.609Z,99496.22
2023-01-15T20:51:55.791Z,99496.22
2023-01-15T20:54:24.011Z,99505.97
2023-01-15T20:56:51.883Z,99508.19
2023-01-15T20:59:18.854Z,99504.06
2023-01-15T21:01:45.792Z,99511.38
2023-01-15T21:04:13.913Z,99516.16
2023-01-15T21:06:41.216Z,99501.50
2023-01-15T21:09:08.111Z,99505.47
2023-01-15T21:11:35.039Z,99509.84
2023-01-15T21:14:01.963Z,99493.25
2023-01-15T21:16:28.858Z,99494.56
2023-01-15T21:19:01.373Z,99504.88
2023-01-15T21:21:28.475Z,99499.34
2023-01-15T21:23:55.843Z,99502.06
2023-01-15T21:26:24.888Z,99484.91
2023-01-15T21:28:56.398Z,99491.25
2023-01-15T21:31:23.706Z,99500.56
2023-01-15T21:33:54.360Z,99502.19
2023-01-15T21:36:21.524Z,99511.50
2023-01-15T21:38:53.710Z,99498.56
2023-01-15T21:41:41.446Z,99503.59
2023-01-15T21:44:32.676Z,99509.72
2023-01-15T21:47:01.570Z,99507.47
2023-01-15T21:49:31.922Z,99506.28
2023-01-15T21:52:00.296Z,99506.53
2023-01-15T21:54:27.901Z,99505.09
2023-01-15T21:56:55.853Z,99510.16
2023-01-15T21:59:23.751Z,99507.09
2023-01-15T22:01:53.694Z,99511.91
2023-01-15T22:04:20.751Z,99507.44
2023-01-15T22:06:47.547Z,99514.13
2023-01-15T22:09:14.627Z,99507.91
2023-01-15T22:11:44.716Z,99516.69
2023-01-15T22:14:17.801Z,99504.34
2023-01-15T22:16:46.274Z,99500.09
2023-01-15T22:19:19.788Z,99494.13
2023-01-15T22:21:50.458Z,99488.59
2023-01-15T22:24:19.618Z,99495.41
2023-01-15T22:26:54.095Z,99484.81
2023-01-15T22:29:29.455Z,99486.59
2023-01-15T22:31:56.856Z,99495.50
2023-01-15T22:34:26.212Z,99494.91
2023-01-15T22:36:53.988Z,99489.97
2023-01-15T22:39:23.129Z,99489.97
2023-01-15T22:42:08.902Z,99485.03
2023-01-15T22:44:36.074Z,99488.78
2023-01-15T22:47:03.681Z,99483.38
2023-01-15T22:49:31.104Z,99493.94
2023-01-15T22:51:57.973Z,99499.56
2023-01-15T22:54:24.993Z,99490.28
2023-01-15T22:56:51.795Z,99483.94
2023-01-15T22:59:19.442Z,99480.09
2023-01-15T23:01:46.965Z,99486.31
2023-01-15T23:04:16.864Z,99487.13
2023-01-15T23:06:46.674Z,99486.78
2023-01-15T23:09:13.947Z,99480.09
2023-01-15T23:11:41.557Z,99484.09
2023-01-15T23:14:11.609Z,99484.44
2023-01-15T23:16:38.599Z,99492.09
2023-01-15T23:19:06.355Z,99478.88
2023-01-15T23:21:33.662Z,99481.72
2023-01-15T23:24:02.264Z,99469.66
2023-01-15T23:26:32.224Z,99490.56
2023-01-15T23:29:00.047Z,99492.44
2023-01-15T23:31:28.278Z,99492.09
2023-01-15T23:33:55.515Z,99497.00
2023-01-15T23:36:22.904Z,99497.63
2023-01-15T23:38:49.817Z,99493.88
2023-01-15T23:41:19.787Z,99496.91
2023-01-15T23:44:05.370Z,99492.34
2023-01-15T23:46:35.819Z,99490.22
2023-01-15T23:49:08.678Z,99487.53
2023-01-15T23:51:36.793Z,99484.25
2023-01-15T23:54:04.845Z,99488.13
2023-01-15T23:56:33.474Z,99476.59
2023-01-15T23:59:00.662Z,99475.69
